Time;durP1;ratioP1;P1;durP2;ratioP2;P2;SDS_P1;SDS_P2;PMS_P1;PMS_P2;Temp;Humidity;BMP_temperature;BMP_pressure;BME280_temperature;BME280_humidity;BME280_pressure;Samples;Min_cycle;Max_cycle;Signal;HPM_P1;HPM_P2
2022/06/15 07:34:33;;;;;;;14.13;4.05;;;;;;;;;;5057342;27;86343;-71
2022/06/15 07:36:59;;;;;;;12.80;2.50;;;;;;;;;;5054760;27;86877;-71
2022/06/15 07:39:27;;;;;;;14.70;3.75;;;;;;;;;;5048059;27;87493;-71
2022/06/15 07:42:00;;;;;;;18.33;3.45;;;;;;;;;;5055951;27;87547;-71
2022/06/15 07:44:27;;;;;;;7.22;1.98;;;;;;;;;;5054380;27;87695;-71
2022/06/15 07:49:54;;;;;;;9.20;2.47;;;;;;;;;;5038377;27;87844;-71
2022/06/15 07:49:57;;;;;;;14.32;3.05;;;;;;;;;;5035634;27;86882;-71
2022/06/15 07:52:44;;;;;;;6.53;2.20;;;;;;;;;;5045114;27;88266;-71
2022/06/15 07:55:12;;;;;;;6.40;2.00;;;;;;;;;;5040376;27;87663;-71
2022/06/15 07:57:38;;;;;;;7.55;1.88;;;;;;;;;;5021745;27;87985;-71
2022/06/15 08:00:10;;;;;;;7.68;2.00;;;;;;;;;;5035522;27;88340;-71
2022/06/15 08:02:37;;;;;;;7.07;1.67;;;;;;;;;;5035678;27;86813;-71
2022/06/15 08:05:03;;;;;;;8.63;1.70;;;;;;;;;;5049149;27;87744;-72
2022/06/15 08:07:30;;;;;;;9.02;2.13;;;;;;;;;;5043797;27;86991;-72
2022/06/15 08:09:56;;;;;;;8.32;2.63;;;;;;;;;;5032004;27;88681;-71
2022/06/15 08:12:23;;;;;;;5.53;1.75;;;;;;;;;;5045229;27;88427;-72
2022/06/15 08:14:53;;;;;;;6.30;1.92;;;;;;;;;;5049318;27;87481;-71
2022/06/15 08:17:33;;;;;;;5.65;1.88;;;;;;;;;;5037090;27;87319;-71
2022/06/15 08:20:02;;;;;;;6.63;1.58;;;;;;;;;;5052066;27;86956;-71
2022/06/15 08:22:28;;;;;;;5.13;1.42;;;;;;;;;;5046947;27;87449;-71
2022/06/15 08:24:55;;;;;;;5.22;1.60;;;;;;;;;;5034988;27;87667;-72
2022/06/15 08:27:22;;;;;;;5.57;2.13;;;;;;;;;;5033200;27;87282;-71
2022/06/15 08:29:49;;;;;;;2.78;1.50;;;;;;;;;;5042212;27;87408;-71
2022/06/15 08:32:16;;;;;;;16.88;1.92;;;;;;;;;;5054674;27;87888;-68
2022/06/15 08:34:43;;;;;;;11.38;1.88;;;;;;;;;;5052500;27;87298;-67
2022/06/15 08:37:11;;;;;;;3.88;1.45;;;;;;;;;;5035263;27;87704;-66
2022/06/15 08:39:38;;;;;;;11.20;2.10;;;;;;;;;;5034013;27;87691;-67
2022/06/15 08:42:27;;;;;;;4.40;1.40;;;;;;;;;;5055107;27;88321;-67
2022/06/15 08:45:02;;;;;;;4.97;1.60;;;;;;;;;;5010455;28;87914;-68
2022/06/15 08:47:36;;;;;;;4.57;1.73;;;;;;;;;;4997859;28;88498;-68
2022/06/15 08:50:05;;;;;;;4.03;1.70;;;;;;;;;;4998337;28;86827;-67
2022/06/15 08:52:42;;;;;;;8.25;1.73;;;;;;;;;;4997786;28;88190;-67
2022/06/15 08:55:32;;;;;;;3.90;1.52;;;;;;;;;;5007443;28;87907;-68
2022/06/15 08:58:06;;;;;;;6.65;1.80;;;;;;;;;;4998913;28;88553;-67
2022/06/15 09:00:34;;;;;;;6.20;1.67;;;;;;;;;;4994844;28;87957;-68
2022/06/15 09:03:03;;;;;;;9.02;1.40;;;;;;;;;;5002119;28;87976;-68
2022/06/15 09:05:29;;;;;;;9.40;1.73;;;;;;;;;;5011838;28;89158;-68
2022/06/15 09:07:55;;;;;;;6.18;1.77;;;;;;;;;;4996389;28;87624;-68
2022/06/15 09:10:39;;;;;;;6.28;1.90;;;;;;;;;;4998203;28;88581;-67
2022/06/15 09:13:25;;;;;;;2.58;1.13;;;;;;;;;;5003658;28;88473;-67
2022/06/15 09:15:57;;;;;;;11.90;1.63;;;;;;;;;;5007231;28;88038;-68
2022/06/15 09:18:29;;;;;;;6.18;1.42;;;;;;;;;;4997811;28;91393;-68
2022/06/15 09:21:01;;;;;;;5.90;1.30;;;;;;;;;;4997855;28;87576;-67
2022/06/15 09:23:31;;;;;;;4.15;1.52;;;;;;;;;;5023268;27;87598;-68
2022/06/15 09:25:58;;;;;;;;;;;;;;;;;;5044075;27;87314;-68
2022/06/15 09:28:28;;;;;;;4.82;1.52;;;;;;;;;;5020892;28;118262;-67
2022/06/15 09:30:56;;;;;;;4.13;1.35;;;;;;;;;;5017343;28;89351;-68
2022/06/15 09:33:28;;;;;;;3.80;1.73;;;;;;;;;;5015452;28;87974;-67
2022/06/15 09:36:02;;;;;;;2.15;1.10;;;;;;;;;;5020606;28;88215;-68
2022/06/15 09:38:30;;;;;;;3.30;1.25;;;;;;;;;;5020014;28;86806;-65
2022/06/15 09:41:02;;;;;;;2.58;1.45;;;;;;;;;;5029542;28;88882;-65
2022/06/15 09:43:28;;;;;;;4.97;1.73;;;;;;;;;;5018959;27;87410;-65
2022/06/15 09:45:59;;;;;;;3.55;1.02;;;;;;;;;;5017171;28;88870;-65
2022/06/15 09:48:38;;;;;;;3.47;1.60;;;;;;;;;;5031619;28;86802;-66
2022/06/15 09:51:04;;;;;;;4.22;1.52;;;;;;;;;;5015960;28;88212;-64
2022/06/15 09:53:48;;;;;;;3.60;1.45;;;;;;;;;;5019666;28;87843;-65
2022/06/15 09:56:17;;;;;;;3.97;1.42;;;;;;;;;;5018606;28;88225;-66
2022/06/15 09:58:56;;;;;;;6.25;1.65;;;;;;;;;;5018664;28;88046;-66
2022/06/15 10:01:25;;;;;;;4.40;1.30;;;;;;;;;;5016673;28;88035;-65
2022/06/15 10:03:52;;;;;;;2.25;1.20;;;;;;;;;;5019655;28;88619;-66
2022/06/15 10:06:37;;;;;;;4.43;1.20;;;;;;;;;;5029364;28;87513;-66
2022/06/15 10:09:05;;;;;;;3.80;1.10;;;;;;;;;;5024536;27;88827;-65
2022/06/15 10:11:32;;;;;;;2.58;1.00;;;;;;;;;;5017714;28;88541;-66
2022/06/15 10:14:15;;;;;;;4.40;1.67;;;;;;;;;;5017017;28;88105;-66
2022/06/15 10:16:50;;;;;;;2.03;0.90;;;;;;;;;;5024950;28;87422;-66
2022/06/15 10:19:17;;;;;;;2.10;1.08;;;;;;;;;;5039499;27;88651;-66
2022/06/15 10:21:43;;;;;;;1.73;1.00;;;;;;;;;;5039466;27;87541;-65
2022/06/15 10:24:24;;;;;;;5.82;1.30;;;;;;;;;;5026105;28;88576;-66
2022/06/15 10:26:53;;;;;;;4.03;1.58;;;;;;;;;;5019077;28;87361;-65
2022/06/15 10:29:22;;;;;;;5.07;1.20;;;;;;;;;;5016243;28;87663;-66
2022/06/15 10:32:00;;;;;;;5.27;1.30;;;;;;;;;;5021437;28;88756;-66
2022/06/15 10:34:29;;;;;;;1.13;0.90;;;;;;;;;;5030517;27;88252;-66
2022/06/15 10:36:57;;;;;;;1.77;0.82;;;;;;;;;;5032503;27;87857;-66
2022/06/15 10:39:26;;;;;;;2.78;1.17;;;;;;;;;;5018919;28;87275;-66
2022/06/15 10:42:00;;;;;;;1.73;0.80;;;;;;;;;;5018663;27;87832;-66
2022/06/15 10:44:26;;;;;;;;;;;;;;;;;;5019641;28;87872;-66
2022/06/15 10:46:57;;;;;;;6.88;1.40;;;;;;;;;;5017637;28;118119;-65
2022/06/15 10:49:24;;;;;;;2.22;1.05;;;;;;;;;;5015912;28;87091;-65
2022/06/15 10:51:50;;;;;;;2.00;1.17;;;;;;;;;;5021111;27;88474;-62
2022/06/15 10:54:19;;;;;;;2.65;1.20;;;;;;;;;;5018862;28;87290;-64
2022/06/15 11:02:23;;;;;;;9.70;1.58;;;;;;;;;;5018945;28;88040;-64
2022/06/15 11:04:56;;;;;;;3.22;1.00;;;;;;;;;;5017783;28;89172;-70
2022/06/15 11:07:22;;;;;;;3.75;1.13;;;;;;;;;;5017599;28;86793;-65
2022/06/15 11:09:53;;;;;;;5.03;1.30;;;;;;;;;;5018455;28;87851;-65
2022/06/15 11:12:30;;;;;;;5.03;0.95;;;;;;;;;;5016619;28;87320;-65
2022/06/15 11:15:17;;;;;;;3.40;1.38;;;;;;;;;;5024457;28;87615;-65
2022/06/15 11:18:02;;;;;;;6.95;1.00;;;;;;;;;;5013095;28;87735;-64
2022/06/15 11:20:28;;;;;;;9.48;1.05;;;;;;;;;;5015232;28;87212;-64
2022/06/15 11:22:59;;;;;;;3.38;0.77;;;;;;;;;;5017802;28;88969;-63
2022/06/15 11:25:32;;;;;;;3.58;1.00;;;;;;;;;;5020835;28;87095;-64
2022/06/15 11:28:02;;;;;;;3.53;1.05;;;;;;;;;;4999011;28;87397;-64
2022/06/15 11:30:31;;;;;;;5.55;1.17;;;;;;;;;;5017166;28;89887;-64
2022/06/15 11:33:12;;;;;;;5.75;1.30;;;;;;;;;;5016678;28;88519;-64
2022/06/15 11:36:00;;;;;;;2.17;1.08;;;;;;;;;;5017247;28;87507;-63
2022/06/15 11:38:38;;;;;;;4.00;1.10;;;;;;;;;;5012698;28;87906;-64
2022/06/15 11:41:25;;;;;;;5.28;1.50;;;;;;;;;;5021136;28;87120;-64
2022/06/15 11:43:54;;;;;;;3.55;0.90;;;;;;;;;;5015725;28;88410;-64
2022/06/15 11:46:26;;;;;;;8.48;1.10;;;;;;;;;;5018549;28;87671;-64
2022/06/15 11:48:55;;;;;;;2.13;1.05;;;;;;;;;;5016710;28;88782;-64
2022/06/15 11:51:40;;;;;;;5.47;1.50;;;;;;;;;;5017539;28;87803;-64
2022/06/15 11:54:11;;;;;;;3.10;1.00;;;;;;;;;;5017131;28;88181;-64
2022/06/15 11:56:47;;;;;;;1.20;0.90;;;;;;;;;;5017311;28;90668;-64
2022/06/15 11:59:18;;;;;;;8.60;1.40;;;;;;;;;;5015333;28;88809;-64
2022/06/15 12:02:08;;;;;;;1.73;0.98;;;;;;;;;;5020151;28;91247;-64
2022/06/15 12:04:44;;;;;;;3.55;0.88;;;;;;;;;;5016974;28;88243;-64
2022/06/15 12:07:28;;;;;;;1.92;0.90;;;;;;;;;;5017130;28;88799;-64
2022/06/15 12:10:27;;;;;;;1.85;0.90;;;;;;;;;;5014623;28;89234;-64
2022/06/15 12:12:59;;;;;;;4.82;1.27;;;;;;;;;;4977630;28;88212;-64
2022/06/15 12:15:34;;;;;;;1.52;0.80;;;;;;;;;;4990543;28;90169;-64
2022/06/15 12:18:13;;;;;;;1.55;1.02;;;;;;;;;;4994787;28;88267;-64
2022/06/15 12:20:46;;;;;;;1.98;1.02;;;;;;;;;;4996915;28;88233;-64
2022/06/15 12:23:27;;;;;;;2.22;0.90;;;;;;;;;;4997737;28;88783;-64
2022/06/15 12:26:22;;;;;;;2.05;1.05;;;;;;;;;;5000478;28;89961;-64
2022/06/15 12:29:01;;;;;;;1.95;0.98;;;;;;;;;;4987620;28;90505;-64
2022/06/15 12:31:53;;;;;;;4.40;1.00;;;;;;;;;;4977974;28;89330;-64
2022/06/15 12:34:37;;;;;;;1.00;0.80;;;;;;;;;;4977412;28;88797;-65
2022/06/15 12:37:22;;;;;;;2.92;0.82;;;;;;;;;;4978037;28;88886;-64
2022/06/15 12:40:10;;;;;;;2.13;0.88;;;;;;;;;;4978725;28;89052;-64
2022/06/15 12:42:38;;;;;;;1.38;0.73;;;;;;;;;;4977682;28;88008;-64
2022/06/15 12:45:14;;;;;;;2.63;1.02;;;;;;;;;;4979646;28;88861;-64
2022/06/15 12:47:40;;;;;;;3.15;0.80;;;;;;;;;;4998118;28;93219;-64
2022/06/15 12:50:07;;;;;;;2.10;1.35;;;;;;;;;;5017789;28;88132;-64
2022/06/15 12:52:40;;;;;;;4.00;1.08;;;;;;;;;;5019089;28;90102;-64
2022/06/15 12:55:25;;;;;;;1.67;1.10;;;;;;;;;;5019410;28;87993;-64
2022/06/15 12:57:55;;;;;;;2.95;0.60;;;;;;;;;;5018343;28;89450;-64
2022/06/15 13:00:27;;;;;;;0.88;0.73;;;;;;;;;;5019769;28;89638;-64
2022/06/15 13:03:06;;;;;;;1.58;0.85;;;;;;;;;;5019241;28;88357;-64
2022/06/15 13:05:35;;;;;;;1.63;0.80;;;;;;;;;;5019473;28;88928;-64
2022/06/15 13:08:11;;;;;;;1.42;1.05;;;;;;;;;;5018241;28;89187;-63
2022/06/15 13:10:57;;;;;;;0.60;0.60;;;;;;;;;;5020084;28;88785;-64
2022/06/15 13:13:23;;;;;;;1.38;0.80;;;;;;;;;;5022252;28;87874;-64
2022/06/15 13:15:50;;;;;;;0.88;0.70;;;;;;;;;;5019401;28;88299;-64
2022/06/15 13:18:17;;;;;;;0.95;0.70;;;;;;;;;;5018706;28;88780;-64
2022/06/15 13:20:46;;;;;;;3.03;0.70;;;;;;;;;;5019267;28;89105;-64
2022/06/15 13:23:17;;;;;;;1.90;1.02;;;;;;;;;;5018316;28;88366;-64
2022/06/15 13:25:43;;;;;;;;;;;;;;;;;;5019713;28;89517;-64
2022/06/15 13:28:09;;;;;;;1.55;0.70;;;;;;;;;;5019997;28;119196;-64
2022/06/15 13:30:47;;;;;;;1.25;0.73;;;;;;;;;;5019173;28;88059;-64
2022/06/15 13:33:14;;;;;;;1.17;0.90;;;;;;;;;;5018768;28;88613;-64
2022/06/15 13:35:41;;;;;;;3.72;1.00;;;;;;;;;;5022603;28;89705;-64
2022/06/15 13:38:14;;;;;;;1.13;0.82;;;;;;;;;;5016982;28;88798;-64
2022/06/15 13:40:58;;;;;;;2.33;1.00;;;;;;;;;;5017804;28;89354;-64
2022/06/15 13:43:26;;;;;;;1.35;0.90;;;;;;;;;;5018476;28;88708;-64
2022/06/15 13:45:54;;;;;;;2.00;0.88;;;;;;;;;;5018919;28;89360;-64
2022/06/15 13:48:23;;;;;;;1.60;0.68;;;;;;;;;;5019068;28;89056;-64
2022/06/15 13:50:51;;;;;;;1.55;0.80;;;;;;;;;;5018610;28;88057;-64
2022/06/15 13:53:32;;;;;;;1.05;0.63;;;;;;;;;;5019075;28;87935;-64
2022/06/15 13:56:17;;;;;;;2.28;1.02;;;;;;;;;;5017631;28;88209;-64
2022/06/15 13:59:08;;;;;;;0.93;0.63;;;;;;;;;;5021795;28;87934;-64
2022/06/15 14:01:56;;;;;;;1.77;0.80;;;;;;;;;;5019130;28;87308;-63
2022/06/15 14:04:42;;;;;;;1.52;0.88;;;;;;;;;;5016035;28;89402;-63
2022/06/15 14:07:16;;;;;;;1.75;0.90;;;;;;;;;;4998567;28;89208;-64
2022/06/15 14:09:59;;;;;;;0.90;0.65;;;;;;;;;;4997689;28;90176;-64
2022/06/15 14:12:34;;;;;;;0.73;0.73;;;;;;;;;;4997440;28;88341;-64
2022/06/15 14:15:24;;;;;;;1.65;0.93;;;;;;;;;;4999473;28;87973;-64
2022/06/15 14:17:50;;;;;;;2.67;0.80;;;;;;;;;;5017447;28;88888;-64
2022/06/15 14:20:26;;;;;;;1.10;0.70;;;;;;;;;;5001417;28;88765;-64
2022/06/15 14:22:53;;;;;;;0.75;0.73;;;;;;;;;;5013129;28;89200;-64
2022/06/15 14:25:50;;;;;;;1.23;0.80;;;;;;;;;;5018366;27;88773;-64
2022/06/15 14:28:18;;;;;;;0.70;0.70;;;;;;;;;;5019579;28;87827;-64
2022/06/15 14:30:47;;;;;;;1.60;0.98;;;;;;;;;;5018225;28;88968;-64
2022/06/15 14:33:19;;;;;;;1.73;0.95;;;;;;;;;;5017401;28;88287;-63
2022/06/15 14:36:08;;;;;;;0.75;0.70;;;;;;;;;;5017111;28;89702;-64
2022/06/15 14:38:36;;;;;;;0.70;0.70;;;;;;;;;;5018395;28;89020;-64
2022/06/15 14:41:10;;;;;;;1.70;0.80;;;;;;;;;;5018067;28;87990;-64
2022/06/15 14:43:36;;;;;;;1.48;0.90;;;;;;;;;;5020367;28;89172;-64
2022/06/15 14:46:03;;;;;;;3.75;1.27;;;;;;;;;;5017916;28;88302;-64
2022/06/15 14:48:33;;;;;;;1.27;0.80;;;;;;;;;;5018087;28;88615;-64
2022/06/15 14:51:05;;;;;;;1.80;0.80;;;;;;;;;;5016132;28;89299;-64
2022/06/15 14:53:31;;;;;;;2.25;0.90;;;;;;;;;;5018446;28;87683;-64
2022/06/15 14:56:01;;;;;;;0.70;0.50;;;;;;;;;;5017575;28;88117;-64
2022/06/15 14:58:28;;;;;;;1.13;0.85;;;;;;;;;;5017552;28;90241;-64
2022/06/15 15:01:05;;;;;;;1.45;0.70;;;;;;;;;;5017180;28;88750;-64
2022/06/15 15:03:33;;;;;;;0.57;0.57;;;;;;;;;;5017755;28;89761;-64
2022/06/15 15:06:07;;;;;;;1.08;0.68;;;;;;;;;;5020007;28;89798;-64
2022/06/15 15:08:34;;;;;;;0.90;0.63;;;;;;;;;;5017650;28;88837;-64
2022/06/15 15:11:02;;;;;;;1.50;0.70;;;;;;;;;;5016416;28;89862;-65
2022/06/15 15:13:34;;;;;;;0.82;0.60;;;;;;;;;;5017431;28;88244;-64
2022/06/15 15:16:00;;;;;;;1.05;0.80;;;;;;;;;;5017876;28;89988;-64
2022/06/15 15:18:29;;;;;;;0.90;0.70;;;;;;;;;;5018010;28;88259;-64
2022/06/15 15:20:56;;;;;;;1.73;0.90;;;;;;;;;;5017778;28;88808;-64
2022/06/15 15:23:42;;;;;;;0.93;0.60;;;;;;;;;;5016568;28;88761;-63
2022/06/15 15:26:23;;;;;;;0.73;0.50;;;;;;;;;;5013974;28;89759;-64
2022/06/15 15:34:53;;;;;;;1.35;0.80;;;;;;;;;;5017164;28;88063;-64
2022/06/15 15:37:36;;;;;;;0.60;0.60;;;;;;;;;;5017064;28;88556;-64
2022/06/15 15:40:09;;;;;;;0.98;0.80;;;;;;;;;;5015806;28;89129;-64
2022/06/15 15:42:36;;;;;;;1.23;0.60;;;;;;;;;;5016115;28;88068;-64
2022/06/15 15:45:03;;;;;;;0.60;0.60;;;;;;;;;;5017870;28;89029;-64
2022/06/15 15:47:29;;;;;;;2.10;0.85;;;;;;;;;;5017252;28;88994;-64
2022/06/15 15:49:56;;;;;;;0.70;0.70;;;;;;;;;;5015970;28;88011;-64
2022/06/15 15:52:23;;;;;;;1.02;0.70;;;;;;;;;;5019795;28;88690;-64
2022/06/15 15:54:50;;;;;;;0.75;0.60;;;;;;;;;;5018415;28;87924;-64
2022/06/15 15:57:18;;;;;;;1.02;0.70;;;;;;;;;;5019695;28;89924;-63
2022/06/15 15:59:46;;;;;;;0.77;0.60;;;;;;;;;;5020735;28;89151;-64
2022/06/15 16:02:14;;;;;;;0.80;0.60;;;;;;;;;;5019080;28;88302;-64
2022/06/15 16:04:42;;;;;;;0.70;0.70;;;;;;;;;;5012062;28;88768;-62
2022/06/15 16:07:11;;;;;;;0.70;0.70;;;;;;;;;;5018094;28;88780;-64
2022/06/15 16:09:38;;;;;;;1.20;0.77;;;;;;;;;;5000452;28;88142;-65
2022/06/15 16:12:05;;;;;;;1.80;0.70;;;;;;;;;;5019320;28;87917;-65
2022/06/15 16:14:32;;;;;;;1.70;0.60;;;;;;;;;;5020013;28;89119;-65
2022/06/15 16:16:59;;;;;;;1.55;0.70;;;;;;;;;;5016115;28;89111;-65
2022/06/15 16:19:26;;;;;;;3.05;0.82;;;;;;;;;;5020430;28;87984;-65
2022/06/15 16:21:52;;;;;;;0.70;0.70;;;;;;;;;;5020125;28;88004;-65
2022/06/15 16:24:18;;;;;;;1.88;0.65;;;;;;;;;;5020414;28;89974;-65
2022/06/15 16:26:45;;;;;;;0.90;0.60;;;;;;;;;;5019230;28;90371;-64
2022/06/15 16:29:12;;;;;;;1.52;0.60;;;;;;;;;;5020543;28;88029;-65
2022/06/15 16:31:38;;;;;;;1.50;1.00;;;;;;;;;;5018301;28;88793;-65
2022/06/15 16:34:05;;;;;;;1.38;0.60;;;;;;;;;;5023090;28;87920;-64
2022/06/15 16:36:35;;;;;;;0.98;0.77;;;;;;;;;;5019987;28;89386;-64
2022/06/15 16:39:02;;;;;;;2.50;0.60;;;;;;;;;;5020049;28;88869;-65
2022/06/15 16:41:29;;;;;;;1.15;0.65;;;;;;;;;;5019776;28;89288;-65
2022/06/15 16:43:55;;;;;;;0.65;0.65;;;;;;;;;;5020043;28;89271;-65
2022/06/15 16:46:23;;;;;;;0.60;0.60;;;;;;;;;;5019120;28;88943;-65
2022/06/15 16:48:50;;;;;;;0.80;0.70;;;;;;;;;;5019587;28;88337;-65
2022/06/15 16:51:18;;;;;;;0.60;0.60;;;;;;;;;;5019720;28;88879;-65
2022/06/15 16:53:44;;;;;;;1.27;0.60;;;;;;;;;;5019689;28;88797;-65
2022/06/15 16:56:12;;;;;;;1.27;0.60;;;;;;;;;;5021196;28;88021;-65
2022/06/15 16:58:40;;;;;;;0.60;0.60;;;;;;;;;;5017386;28;88287;-64
2022/06/15 17:01:07;;;;;;;1.10;0.70;;;;;;;;;;5017316;28;89663;-65
2022/06/15 17:03:34;;;;;;;6.32;0.60;;;;;;;;;;5016399;28;89784;-65
2022/06/15 17:06:01;;;;;;;1.38;0.65;;;;;;;;;;5018770;28;90342;-65
2022/06/15 17:08:37;;;;;;;1.25;0.90;;;;;;;;;;5033786;28;88696;-65
2022/06/15 17:11:04;;;;;;;1.85;0.75;;;;;;;;;;5023268;28;89874;-65
2022/06/15 17:13:31;;;;;;;1.45;0.93;;;;;;;;;;5035300;28;89660;-65
2022/06/15 17:15:58;;;;;;;0.75;0.60;;;;;;;;;;5030424;27;88054;-65
2022/06/15 17:18:25;;;;;;;2.35;0.73;;;;;;;;;;5017812;28;88959;-65
2022/06/15 17:20:52;;;;;;;3.40;0.70;;;;;;;;;;5029882;28;88036;-65
2022/06/15 17:23:19;;;;;;;0.85;0.73;;;;;;;;;;5034155;28;89747;-65
2022/06/15 17:25:46;;;;;;;1.35;0.80;;;;;;;;;;5033960;27;90151;-65
2022/06/15 17:28:13;;;;;;;0.60;0.57;;;;;;;;;;5030324;27;88571;-64
2022/06/15 17:30:40;;;;;;;0.50;0.50;;;;;;;;;;5033881;27;89973;-65
2022/06/15 17:33:07;;;;;;;1.95;0.98;;;;;;;;;;5016412;27;89783;-65
2022/06/15 17:35:35;;;;;;;1.63;0.60;;;;;;;;;;5017915;28;87943;-65
2022/06/15 17:38:01;;;;;;;1.90;0.77;;;;;;;;;;5019169;28;89666;-65
2022/06/15 17:40:28;;;;;;;1.08;0.60;;;;;;;;;;5021119;28;88885;-65
2022/06/15 17:42:55;;;;;;;0.82;0.60;;;;;;;;;;5013494;28;89164;-65
2022/06/15 17:45:22;;;;;;;1.13;0.98;;;;;;;;;;5016727;27;89965;-65
2022/06/15 17:47:49;;;;;;;1.52;0.75;;;;;;;;;;5018701;28;89066;-65
2022/06/15 17:50:15;;;;;;;1.52;0.70;;;;;;;;;;5006714;28;89503;-65
2022/06/15 17:52:41;;;;;;;5.75;0.77;;;;;;;;;;5038859;27;88863;-65
2022/06/15 17:55:09;;;;;;;1.90;0.63;;;;;;;;;;5033722;27;88813;-65
2022/06/15 17:57:35;;;;;;;2.45;0.80;;;;;;;;;;5018214;28;88606;-65
2022/06/15 18:00:07;;;;;;;0.85;0.55;;;;;;;;;;5029478;27;90020;-65
2022/06/15 18:02:35;;;;;;;1.70;1.08;;;;;;;;;;5042061;28;88953;-65
2022/06/15 18:05:02;;;;;;;1.05;0.70;;;;;;;;;;5038858;27;89188;-65
2022/06/15 18:07:28;;;;;;;2.22;0.90;;;;;;;;;;5029049;27;89441;-65
2022/06/15 18:09:54;;;;;;;0.95;0.80;;;;;;;;;;5036898;27;88840;-64
2022/06/15 18:12:29;;;;;;;2.15;0.90;;;;;;;;;;5018906;28;88479;-65
2022/06/15 18:14:55;;;;;;;1.23;0.82;;;;;;;;;;5018956;28;89110;-65
2022/06/15 18:17:22;;;;;;;5.07;0.80;;;;;;;;;;5026026;27;88760;-65
2022/06/15 18:19:53;;;;;;;1.02;0.77;;;;;;;;;;5036591;28;89867;-65
2022/06/15 18:22:21;;;;;;;1.60;0.88;;;;;;;;;;5038481;27;88709;-64
2022/06/15 18:24:47;;;;;;;1.85;0.80;;;;;;;;;;5027274;27;88312;-65
2022/06/15 18:27:14;;;;;;;0.80;0.80;;;;;;;;;;5020718;28;88050;-65
2022/06/15 18:29:40;;;;;;;10.15;1.33;;;;;;;;;;5038235;27;88642;-64
2022/06/15 18:32:13;;;;;;;0.70;0.70;;;;;;;;;;5037989;27;89029;-64
2022/06/15 18:34:40;;;;;;;2.15;0.80;;;;;;;;;;5026112;27;87958;-65
2022/06/15 18:37:08;;;;;;;2.03;1.05;;;;;;;;;;5021115;28;88270;-65
2022/06/15 18:39:36;;;;;;;1.90;1.05;;;;;;;;;;5034898;27;89129;-65
2022/06/15 18:42:02;;;;;;;6.35;1.83;;;;;;;;;;5024072;28;88078;-65
2022/06/15 18:49:58;;;;;;;2.00;0.90;;;;;;;;;;5032280;27;88755;-65
2022/06/15 18:52:25;;;;;;;2.78;1.10;;;;;;;;;;5018580;28;88385;-65
2022/06/15 18:54:52;;;;;;;0.82;0.70;;;;;;;;;;5023501;28;89147;-65
2022/06/15 18:57:19;;;;;;;1.33;0.88;;;;;;;;;;5021505;28;88884;-65
2022/06/15 18:59:48;;;;;;;2.10;1.00;;;;;;;;;;5007794;27;90788;-65
2022/06/15 19:02:14;;;;;;;0.80;0.80;;;;;;;;;;4998375;28;87121;-65
2022/06/15 19:04:41;;;;;;;1.92;0.85;;;;;;;;;;5017236;28;87952;-64
2022/06/15 19:07:07;;;;;;;2.15;0.80;;;;;;;;;;5029460;27;88852;-65
2022/06/15 19:09:34;;;;;;;1.52;1.08;;;;;;;;;;5036993;27;88630;-65
2022/06/15 19:12:00;;;;;;;2.08;0.75;;;;;;;;;;5037804;27;88057;-65
2022/06/15 19:14:26;;;;;;;2.33;1.10;;;;;;;;;;5037505;27;88018;-65
2022/06/15 19:16:53;;;;;;;1.50;0.77;;;;;;;;;;5021692;27;88734;-65
2022/06/15 19:19:20;;;;;;;0.65;0.65;;;;;;;;;;5019899;27;88883;-64
2022/06/15 19:21:46;;;;;;;2.25;0.80;;;;;;;;;;5017742;28;88740;-65
2022/06/15 19:24:40;;;;;;;1.35;0.82;;;;;;;;;;5031321;28;88155;-64
2022/06/15 19:26:59;;;;;;;2.00;0.90;;;;;;;;;;5029728;27;89155;-64
2022/06/15 19:29:25;;;;;;;0.95;0.90;;;;;;;;;;5019723;27;88309;-65
2022/06/15 19:31:52;;;;;;;3.45;0.90;;;;;;;;;;5001835;28;88702;-65
2022/06/15 19:34:18;;;;;;;1.35;0.80;;;;;;;;;;5015135;28;89651;-65
2022/06/15 19:36:44;;;;;;;1.65;0.70;;;;;;;;;;5012098;28;89577;-65
2022/06/15 19:39:11;;;;;;;1.10;0.90;;;;;;;;;;5015029;28;90266;-65
2022/06/15 19:41:38;;;;;;;2.35;0.90;;;;;;;;;;5006621;28;87992;-65
2022/06/15 19:44:05;;;;;;;4.65;0.85;;;;;;;;;;5011683;28;88917;-65
2022/06/15 19:46:31;;;;;;;2.00;1.00;;;;;;;;;;5019527;28;88006;-65
2022/06/15 19:48:58;;;;;;;0.80;0.80;;;;;;;;;;5013289;28;88824;-65
2022/06/15 19:51:24;;;;;;;1.90;0.90;;;;;;;;;;5020466;28;88802;-65
2022/06/15 19:53:51;;;;;;;5.90;1.20;;;;;;;;;;5024781;28;88031;-65
2022/06/15 19:56:18;;;;;;;2.15;0.85;;;;;;;;;;5034776;28;89874;-64
2022/06/15 19:58:45;;;;;;;1.88;0.90;;;;;;;;;;5015192;28;89567;-65
2022/06/15 20:01:11;;;;;;;3.63;1.13;;;;;;;;;;5017260;28;88928;-65
2022/06/15 20:03:38;;;;;;;1.35;0.90;;;;;;;;;;5013996;28;89736;-64
2022/06/15 20:06:04;;;;;;;2.40;1.00;;;;;;;;;;5017034;28;89145;-65
2022/06/15 20:08:30;;;;;;;5.30;0.90;;;;;;;;;;5025052;28;88778;-65
2022/06/15 20:10:57;;;;;;;0.95;0.90;;;;;;;;;;5018617;28;88427;-64
2022/06/15 20:13:24;;;;;;;0.73;0.70;;;;;;;;;;5013573;28;90848;-65
2022/06/15 20:15:51;;;;;;;3.00;0.93;;;;;;;;;;5017406;28;88589;-65
2022/06/15 20:18:19;;;;;;;1.42;1.00;;;;;;;;;;5014941;28;88716;-65
2022/06/15 20:20:46;;;;;;;1.33;1.15;;;;;;;;;;5021618;28;88689;-65
2022/06/15 20:23:15;;;;;;;1.20;1.02;;;;;;;;;;5019866;27;88794;-65
2022/06/15 20:25:43;;;;;;;2.87;1.27;;;;;;;;;;5035982;27;89006;-64
2022/06/15 20:28:12;;;;;;;2.08;0.82;;;;;;;;;;5006640;28;89248;-65
2022/06/15 20:30:38;;;;;;;2.58;1.02;;;;;;;;;;5003560;28;88808;-65
2022/06/15 20:33:05;;;;;;;1.05;0.82;;;;;;;;;;5026469;28;90086;-65
2022/06/15 20:35:31;;;;;;;3.00;1.00;;;;;;;;;;5007230;27;88075;-65
2022/06/15 20:37:57;;;;;;;2.45;1.08;;;;;;;;;;5015634;28;88631;-65
2022/06/15 20:40:25;;;;;;;2.80;1.13;;;;;;;;;;5015905;28;89056;-65
2022/06/15 20:42:52;;;;;;;2.58;1.10;;;;;;;;;;5016841;28;88894;-65
2022/06/15 20:45:25;;;;;;;1.92;1.10;;;;;;;;;;5020019;28;88995;-65
2022/06/15 20:47:51;;;;;;;1.65;1.10;;;;;;;;;;5027970;28;90497;-65
2022/06/15 20:50:19;;;;;;;2.40;0.90;;;;;;;;;;5036254;27;90377;-64
2022/06/15 20:52:46;;;;;;;1.15;1.00;;;;;;;;;;5039815;27;89318;-65
2022/06/15 20:55:12;;;;;;;4.03;1.10;;;;;;;;;;5025470;27;88217;-64
2022/06/15 20:57:38;;;;;;;5.35;1.00;;;;;;;;;;5026770;28;89021;-65
2022/06/15 21:00:06;;;;;;;4.18;1.15;;;;;;;;;;5032113;27;88093;-65
2022/06/15 21:02:32;;;;;;;1.48;0.93;;;;;;;;;;5037127;27;89613;-65
2022/06/15 21:04:59;;;;;;;2.70;1.10;;;;;;;;;;5039810;27;87184;-65
2022/06/15 21:07:26;;;;;;;2.50;1.10;;;;;;;;;;5033849;27;88024;-65
2022/06/15 21:18:08;;;;;;;4.85;1.20;;;;;;;;;;5021465;28;89906;-65
2022/06/15 21:20:34;;;;;;;3.47;1.30;;;;;;;;;;5020318;28;88133;-65
2022/06/15 21:23:00;;;;;;;3.15;1.10;;;;;;;;;;5039497;27;88545;-65
2022/06/15 21:25:28;;;;;;;3.22;1.23;;;;;;;;;;5036067;27;89314;-65
2022/06/15 21:27:57;;;;;;;2.28;1.23;;;;;;;;;;5027903;28;87974;-65
2022/06/15 21:30:24;;;;;;;2.60;1.27;;;;;;;;;;5039019;27;87678;-65
2022/06/15 21:32:51;;;;;;;1.85;1.10;;;;;;;;;;5018945;27;89189;-65
2022/06/15 21:35:17;;;;;;;2.47;1.30;;;;;;;;;;5019107;28;88044;-65
2022/06/15 21:37:44;;;;;;;2.20;0.90;;;;;;;;;;5025619;28;88763;-65
2022/06/15 21:40:10;;;;;;;2.20;1.20;;;;;;;;;;5038869;27;89944;-65
2022/06/15 21:42:37;;;;;;;1.77;1.00;;;;;;;;;;5019498;27;88512;-64
2022/06/15 21:45:05;;;;;;;2.05;0.80;;;;;;;;;;5013533;28;89887;-64
2022/06/15 21:47:33;;;;;;;1.98;0.85;;;;;;;;;;5015116;28;88808;-64
2022/06/15 21:50:01;;;;;;;3.33;0.80;;;;;;;;;;5021933;28;89697;-63
2022/06/15 21:52:28;;;;;;;3.10;0.90;;;;;;;;;;5008800;28;89103;-64
2022/06/15 21:54:54;;;;;;;2.05;0.75;;;;;;;;;;5014305;28;88046;-63
2022/06/15 21:57:20;;;;;;;1.00;0.90;;;;;;;;;;5018938;28;88954;-67
2022/06/15 21:59:47;;;;;;;1.60;0.88;;;;;;;;;;5027396;28;90094;-66
2022/06/15 22:02:14;;;;;;;8.15;1.50;;;;;;;;;;5028323;27;88685;-65
2022/06/15 22:04:40;;;;;;;6.72;1.52;;;;;;;;;;5032771;27;89047;-66
2022/06/15 22:07:07;;;;;;;4.78;1.55;;;;;;;;;;5017548;28;88157;-66
2022/06/15 22:09:33;;;;;;;4.15;1.55;;;;;;;;;;5031933;27;88807;-66
2022/06/15 22:12:00;;;;;;;6.85;1.90;;;;;;;;;;5002424;28;88567;-65
2022/06/15 22:14:27;;;;;;;5.22;1.95;;;;;;;;;;5016889;28;88633;-65
2022/06/15 22:16:54;;;;;;;8.00;1.52;;;;;;;;;;5011788;28;88641;-64
2022/06/15 22:19:21;;;;;;;8.73;1.75;;;;;;;;;;5028873;28;87322;-64
2022/06/15 22:21:47;;;;;;;5.90;1.90;;;;;;;;;;5028367;27;88702;-66
2022/06/15 22:24:14;;;;;;;4.60;1.95;;;;;;;;;;5036750;28;88829;-63
2022/06/15 22:26:41;;;;;;;3.35;1.92;;;;;;;;;;4998233;28;88663;-69
2022/06/15 22:29:07;;;;;;;6.93;2.00;;;;;;;;;;5013484;28;89372;-68
2022/06/15 22:31:34;;;;;;;7.35;2.25;;;;;;;;;;5016831;28;90152;-68
2022/06/15 22:34:01;;;;;;;5.80;2.10;;;;;;;;;;5018052;28;88051;-68
2022/06/15 22:36:27;;;;;;;9.15;2.03;;;;;;;;;;5021321;28;89579;-68
2022/06/15 22:38:53;;;;;;;5.03;1.90;;;;;;;;;;5034737;27;91100;-70
2022/06/15 22:41:20;;;;;;;4.72;2.03;;;;;;;;;;5017228;27;88870;-70
2022/06/15 22:43:46;;;;;;;6.38;2.17;;;;;;;;;;5022496;28;88850;-70
2022/06/15 22:46:12;;;;;;;5.43;2.08;;;;;;;;;;5015264;28;90031;-70
2022/06/15 22:51:23;;;;;;;9.45;2.30;;;;;;;;;;5032914;27;89412;-70
2022/06/15 22:53:50;;;;;;;5.65;2.33;;;;;;;;;;5035253;27;88044;-70
2022/06/15 22:56:16;;;;;;;4.72;2.50;;;;;;;;;;5017487;28;88957;-70
2022/06/15 22:58:42;;;;;;;3.83;2.33;;;;;;;;;;5021135;28;88796;-70
2022/06/15 23:01:13;;;;;;;6.43;2.53;;;;;;;;;;5021903;28;88154;-69
2022/06/15 23:03:39;;;;;;;4.18;2.15;;;;;;;;;;5034992;28;90653;-70